sensor_id;sensor_type;location;lat;lon;timestamp;P1;durP1;ratioP1;P2;durP2;ratioP2
11473;SDS011;5793;52.238;13.438;2022-08-11T00:01:08;4.18;;;3.58;;
11473;SDS011;5793;52.238;13.438;2022-08-11T00:03:43;5.20;;;3.22;;
11473;SDS011;5793;52.238;13.438;2022-08-11T00:06:13;3.90;;;3.42;;
11473;SDS011;5793;52.238;13.438;2022-08-11T00:08:50;7.03;;;3.60;;
11473;SDS011;5793;52.238;13.438;2022-08-11T00:11:19;3.92;;;3.28;;
11473;SDS011;5793;52.238;13.438;2022-08-11T00:13:52;4.40;;;3.45;;
11473;SDS011;5793;52.238;13.438;2022-08-11T00:16:21;4.82;;;3.58;;
11473;SDS011;5793;52.238;13.438;2022-08-11T00:18:51;4.50;;;3.20;;
11473;SDS011;5793;52.238;13.438;2022-08-11T00:21:23;5.03;;;3.42;;
11473;SDS011;5793;52.238;13.438;2022-08-11T00:24:13;3.63;;;3.33;;
11473;SDS011;5793;52.238;13.438;2022-08-11T00:26:46;4.22;;;3.38;;
11473;SDS011;5793;52.238;13.438;2022-08-11T00:29:15;4.80;;;3.92;;
11473;SDS011;5793;52.238;13.438;2022-08-11T00:31:45;7.35;;;3.45;;
11473;SDS011;5793;52.238;13.438;2022-08-11T00:34:16;3.88;;;3.58;;
11473;SDS011;5793;52.238;13.438;2022-08-11T00:36:48;3.70;;;3.40;;
11473;SDS011;5793;52.238;13.438;2022-08-11T00:39:20;3.97;;;3.40;;
11473;SDS011;5793;52.238;13.438;2022-08-11T00:41:58;4.43;;;3.58;;
11473;SDS011;5793;52.238;13.438;2022-08-11T00:44:40;6.03;;;3.83;;
11473;SDS011;5793;52.238;13.438;2022-08-11T00:47:18;4.45;;;3.65;;
11473;SDS011;5793;52.238;13.438;2022-08-11T00:49:57;5.88;;;3.45;;
11473;SDS011;5793;52.238;13.438;2022-08-11T00:52:43;4.18;;;3.63;;
11473;SDS011;5793;52.238;13.438;2022-08-11T01:02:07;4.93;;;3.72;;
11473;SDS011;5793;52.238;13.438;2022-08-11T01:04:55;5.13;;;3.72;;
11473;SDS011;5793;52.238;13.438;2022-08-11T01:13:48;3.80;;;3.42;;
11473;SDS011;5793;52.238;13.438;2022-08-11T01:16:46;5.93;;;3.65;;
11473;SDS011;5793;52.238;13.438;2022-08-11T01:20:01;7.60;;;3.85;;
11473;SDS011;5793;52.238;13.438;2022-08-11T01:23:03;8.10;;;3.65;;
11473;SDS011;5793;52.238;13.438;2022-08-11T01:26:21;3.75;;;3.22;;
11473;SDS011;5793;52.238;13.438;2022-08-11T01:29:28;5.18;;;3.63;;
11473;SDS011;5793;52.238;13.438;2022-08-11T01:35:46;4.88;;;3.22;;
11473;SDS011;5793;52.238;13.438;2022-08-11T01:41:52;6.93;;;3.80;;
11473;SDS011;5793;52.238;13.438;2022-08-11T01:45:05;4.18;;;3.78;;
11473;SDS011;5793;52.238;13.438;2022-08-11T01:47:44;6.10;;;3.67;;
11473;SDS011;5793;52.238;13.438;2022-08-11T01:53:58;8.68;;;3.58;;
11473;SDS011;5793;52.238;13.438;2022-08-11T01:56:39;5.03;;;3.40;;
11473;SDS011;5793;52.238;13.438;2022-08-11T01:59:16;4.25;;;3.75;;
11473;SDS011;5793;52.238;13.438;2022-08-11T02:01:52;4.25;;;3.53;;
11473;SDS011;5793;52.238;13.438;2022-08-11T02:04:32;6.82;;;4.18;;
11473;SDS011;5793;52.238;13.438;2022-08-11T02:07:09;5.32;;;3.97;;
11473;SDS011;5793;52.238;13.438;2022-08-11T02:09:46;3.50;;;3.20;;
11473;SDS011;5793;52.238;13.438;2022-08-11T02:12:28;4.30;;;3.40;;
11473;SDS011;5793;52.238;13.438;2022-08-11T02:15:17;3.42;;;3.13;;
11473;SDS011;5793;52.238;13.438;2022-08-11T02:17:59;4.32;;;3.45;;
11473;SDS011;5793;52.238;13.438;2022-08-11T02:20:36;3.90;;;3.47;;
11473;SDS011;5793;52.238;13.438;2022-08-11T02:23:28;4.18;;;3.38;;
11473;SDS011;5793;52.238;13.438;2022-08-11T02:26:32;5.65;;;3.78;;
11473;SDS011;5793;52.238;13.438;2022-08-11T02:29:09;4.85;;;3.88;;
11473;SDS011;5793;52.238;13.438;2022-08-11T02:31:49;4.13;;;3.58;;
11473;SDS011;5793;52.238;13.438;2022-08-11T02:34:58;4.40;;;3.63;;
11473;SDS011;5793;52.238;13.438;2022-08-11T02:37:33;4.15;;;3.55;;
11473;SDS011;5793;52.238;13.438;2022-08-11T02:40:15;5.07;;;3.60;;
11473;SDS011;5793;52.238;13.438;2022-08-11T02:42:53;5.43;;;3.70;;
11473;SDS011;5793;52.238;13.438;2022-08-11T02:45:30;4.30;;;3.70;;
11473;SDS011;5793;52.238;13.438;2022-08-11T02:48:14;5.65;;;3.72;;
11473;SDS011;5793;52.238;13.438;2022-08-11T02:51:11;6.68;;;3.65;;
11473;SDS011;5793;52.238;13.438;2022-08-11T02:53:48;6.13;;;3.55;;
11473;SDS011;5793;52.238;13.438;2022-08-11T02:56:26;4.13;;;3.70;;
11473;SDS011;5793;52.238;13.438;2022-08-11T02:59:16;4.10;;;3.70;;
11473;SDS011;5793;52.238;13.438;2022-08-11T03:02:09;4.88;;;3.92;;
11473;SDS011;5793;52.238;13.438;2022-08-11T03:04:44;5.10;;;3.90;;
11473;SDS011;5793;52.238;13.438;2022-08-11T03:07:22;6.07;;;3.92;;
11473;SDS011;5793;52.238;13.438;2022-08-11T03:09:57;5.15;;;3.80;;
11473;SDS011;5793;52.238;13.438;2022-08-11T03:12:39;6.45;;;3.65;;
11473;SDS011;5793;52.238;13.438;2022-08-11T03:15:42;5.82;;;3.72;;
11473;SDS011;5793;52.238;13.438;2022-08-11T03:18:31;4.38;;;3.75;;
11473;SDS011;5793;52.238;13.438;2022-08-11T03:21:08;6.10;;;3.92;;
11473;SDS011;5793;52.238;13.438;2022-08-11T03:23:46;4.95;;;3.80;;
11473;SDS011;5793;52.238;13.438;2022-08-11T03:26:21;5.85;;;3.72;;
11473;SDS011;5793;52.238;13.438;2022-08-11T03:29:09;4.32;;;3.25;;
11473;SDS011;5793;52.238;13.438;2022-08-11T03:31:54;5.60;;;3.75;;
11473;SDS011;5793;52.238;13.438;2022-08-11T03:34:28;5.65;;;3.80;;
11473;SDS011;5793;52.238;13.438;2022-08-11T03:37:05;5.50;;;3.58;;
11473;SDS011;5793;52.238;13.438;2022-08-11T03:40:02;6.45;;;3.67;;
11473;SDS011;5793;52.238;13.438;2022-08-11T03:42:41;4.43;;;3.40;;
11473;SDS011;5793;52.238;13.438;2022-08-11T03:45:16;4.45;;;3.67;;
11473;SDS011;5793;52.238;13.438;2022-08-11T03:47:56;6.35;;;3.75;;
11473;SDS011;5793;52.238;13.438;2022-08-11T03:50:45;6.57;;;3.80;;
11473;SDS011;5793;52.238;13.438;2022-08-11T03:53:26;4.25;;;3.35;;
11473;SDS011;5793;52.238;13.438;2022-08-11T03:56:12;6.82;;;4.10;;
11473;SDS011;5793;52.238;13.438;2022-08-11T03:59:15;4.00;;;3.70;;
11473;SDS011;5793;52.238;13.438;2022-08-11T04:02:18;4.43;;;4.00;;
11473;SDS011;5793;52.238;13.438;2022-08-11T04:08:02;4.15;;;3.55;;
11473;SDS011;5793;52.238;13.438;2022-08-11T04:11:17;5.00;;;4.22;;
11473;SDS011;5793;52.238;13.438;2022-08-11T04:14:30;4.85;;;3.95;;
11473;SDS011;5793;52.238;13.438;2022-08-11T04:17:34;6.45;;;3.67;;
11473;SDS011;5793;52.238;13.438;2022-08-11T04:20:28;4.47;;;3.70;;
11473;SDS011;5793;52.238;13.438;2022-08-11T04:26:50;5.60;;;4.25;;
11473;SDS011;5793;52.238;13.438;2022-08-11T04:29:44;5.15;;;3.92;;
11473;SDS011;5793;52.238;13.438;2022-08-11T04:32:35;5.45;;;4.03;;
11473;SDS011;5793;52.238;13.438;2022-08-11T04:35:25;4.72;;;3.78;;
11473;SDS011;5793;52.238;13.438;2022-08-11T04:38:24;5.82;;;3.92;;
11473;SDS011;5793;52.238;13.438;2022-08-11T04:41:19;4.43;;;3.65;;
11473;SDS011;5793;52.238;13.438;2022-08-11T04:44:22;4.80;;;3.83;;
11473;SDS011;5793;52.238;13.438;2022-08-11T04:47:07;4.32;;;3.70;;
11473;SDS011;5793;52.238;13.438;2022-08-11T04:50:28;7.20;;;4.35;;
11473;SDS011;5793;52.238;13.438;2022-08-11T04:53:44;4.45;;;3.88;;
11473;SDS011;5793;52.238;13.438;2022-08-11T04:56:38;7.15;;;4.10;;
11473;SDS011;5793;52.238;13.438;2022-08-11T05:06:07;5.28;;;3.97;;
11473;SDS011;5793;52.238;13.438;2022-08-11T05:12:01;5.22;;;4.32;;
11473;SDS011;5793;52.238;13.438;2022-08-11T05:14:47;7.20;;;4.32;;
11473;SDS011;5793;52.238;13.438;2022-08-11T05:17:37;6.75;;;4.78;;
11473;SDS011;5793;52.238;13.438;2022-08-11T05:20:42;7.13;;;4.30;;
11473;SDS011;5793;52.238;13.438;2022-08-11T05:23:34;9.70;;;5.72;;
11473;SDS011;5793;52.238;13.438;2022-08-11T05:26:24;8.18;;;4.72;;
11473;SDS011;5793;52.238;13.438;2022-08-11T05:29:23;8.18;;;4.82;;
11473;SDS011;5793;52.238;13.438;2022-08-11T05:32:22;6.25;;;4.65;;
11473;SDS011;5793;52.238;13.438;2022-08-11T05:35:10;10.32;;;4.57;;
11473;SDS011;5793;52.238;13.438;2022-08-11T05:37:59;5.82;;;4.57;;
11473;SDS011;5793;52.238;13.438;2022-08-11T05:40:46;6.72;;;5.38;;
11473;SDS011;5793;52.238;13.438;2022-08-11T05:43:33;10.13;;;5.18;;
11473;SDS011;5793;52.238;13.438;2022-08-11T05:46:44;6.45;;;5.18;;
11473;SDS011;5793;52.238;13.438;2022-08-11T05:49:31;5.20;;;4.68;;
11473;SDS011;5793;52.238;13.438;2022-08-11T05:52:20;8.93;;;4.80;;
11473;SDS011;5793;52.238;13.438;2022-08-11T05:55:12;6.38;;;4.68;;
11473;SDS011;5793;52.238;13.438;2022-08-11T05:58:00;6.63;;;5.07;;
11473;SDS011;5793;52.238;13.438;2022-08-11T06:00:29;9.93;;;5.03;;
11473;SDS011;5793;52.238;13.438;2022-08-11T06:03:00;6.22;;;5.25;;
11473;SDS011;5793;52.238;13.438;2022-08-11T06:05:32;6.35;;;5.05;;
11473;SDS011;5793;52.238;13.438;2022-08-11T06:08:09;10.60;;;5.28;;
11473;SDS011;5793;52.238;13.438;2022-08-11T06:10:40;6.65;;;4.70;;
11473;SDS011;5793;52.238;13.438;2022-08-11T06:13:09;8.50;;;5.03;;
11473;SDS011;5793;52.238;13.438;2022-08-11T06:15:42;11.15;;;5.13;;
11473;SDS011;5793;52.238;13.438;2022-08-11T06:18:11;6.65;;;4.93;;
11473;SDS011;5793;52.238;13.438;2022-08-11T06:20:47;7.50;;;4.97;;
11473;SDS011;5793;52.238;13.438;2022-08-11T06:23:17;8.00;;;4.68;;
11473;SDS011;5793;52.238;13.438;2022-08-11T06:25:48;8.80;;;4.85;;
11473;SDS011;5793;52.238;13.438;2022-08-11T06:28:17;9.43;;;5.03;;
11473;SDS011;5793;52.238;13.438;2022-08-11T06:30:48;11.80;;;5.13;;
11473;SDS011;5793;52.238;13.438;2022-08-11T06:33:17;10.65;;;5.13;;
11473;SDS011;5793;52.238;13.438;2022-08-11T06:35:50;8.18;;;4.57;;
11473;SDS011;5793;52.238;13.438;2022-08-11T06:38:37;9.40;;;4.90;;
11473;SDS011;5793;52.238;13.438;2022-08-11T06:41:25;6.03;;;4.90;;
11473;SDS011;5793;52.238;13.438;2022-08-11T06:44:01;8.15;;;4.40;;
11473;SDS011;5793;52.238;13.438;2022-08-11T06:46:38;4.93;;;4.43;;
11473;SDS011;5793;52.238;13.438;2022-08-11T06:49:08;9.05;;;4.30;;
11473;SDS011;5793;52.238;13.438;2022-08-11T06:51:52;4.97;;;4.45;;
11473;SDS011;5793;52.238;13.438;2022-08-11T06:54:28;7.07;;;4.18;;
11473;SDS011;5793;52.238;13.438;2022-08-11T06:56:59;7.18;;;4.18;;
11473;SDS011;5793;52.238;13.438;2022-08-11T07:00:00;6.18;;;3.75;;
11473;SDS011;5793;52.238;13.438;2022-08-11T07:02:56;7.30;;;3.80;;
11473;SDS011;5793;52.238;13.438;2022-08-11T07:05:28;5.18;;;4.05;;
11473;SDS011;5793;52.238;13.438;2022-08-11T07:08:14;4.68;;;3.75;;
11473;SDS011;5793;52.238;13.438;2022-08-11T07:11:32;6.20;;;4.05;;
11473;SDS011;5793;52.238;13.438;2022-08-11T07:14:49;5.05;;;4.00;;
11473;SDS011;5793;52.238;13.438;2022-08-11T07:17:37;9.95;;;3.90;;
11473;SDS011;5793;52.238;13.438;2022-08-11T07:20:15;3.67;;;3.38;;
11473;SDS011;5793;52.238;13.438;2022-08-11T07:23:02;8.52;;;4.20;;
11473;SDS011;5793;52.238;13.438;2022-08-11T07:25:51;10.57;;;4.10;;
11473;SDS011;5793;52.238;13.438;2022-08-11T07:28:36;5.50;;;3.67;;
11473;SDS011;5793;52.238;13.438;2022-08-11T07:31:30;6.90;;;3.67;;
11473;SDS011;5793;52.238;13.438;2022-08-11T07:34:09;10.13;;;3.42;;
11473;SDS011;5793;52.238;13.438;2022-08-11T07:36:45;5.50;;;3.40;;
11473;SDS011;5793;52.238;13.438;2022-08-11T07:39:18;6.78;;;3.60;;
11473;SDS011;5793;52.238;13.438;2022-08-11T07:41:48;7.90;;;3.60;;
11473;SDS011;5793;52.238;13.438;2022-08-11T07:44:20;6.10;;;3.78;;
11473;SDS011;5793;52.238;13.438;2022-08-11T07:46:57;7.20;;;3.67;;
11473;SDS011;5793;52.238;13.438;2022-08-11T07:49:44;7.25;;;3.42;;
11473;SDS011;5793;52.238;13.438;2022-08-11T07:52:33;3.53;;;3.13;;
11473;SDS011;5793;52.238;13.438;2022-08-11T07:55:05;5.70;;;3.50;;
11473;SDS011;5793;52.238;13.438;2022-08-11T07:57:35;3.88;;;3.40;;
11473;SDS011;5793;52.238;13.438;2022-08-11T08:00:43;3.92;;;2.97;;
11473;SDS011;5793;52.238;13.438;2022-08-11T08:03:36;4.90;;;3.35;;
11473;SDS011;5793;52.238;13.438;2022-08-11T08:06:22;11.65;;;3.78;;
11473;SDS011;5793;52.238;13.438;2022-08-11T08:09:08;8.23;;;3.58;;
11473;SDS011;5793;52.238;13.438;2022-08-11T08:11:55;4.85;;;3.22;;
11473;SDS011;5793;52.238;13.438;2022-08-11T08:14:44;6.13;;;2.72;;
11473;SDS011;5793;52.238;13.438;2022-08-11T08:17:31;5.03;;;3.13;;
11473;SDS011;5793;52.238;13.438;2022-08-11T08:20:36;3.95;;;2.50;;
11473;SDS011;5793;52.238;13.438;2022-08-11T08:23:06;5.43;;;2.90;;
11473;SDS011;5793;52.238;13.438;2022-08-11T08:25:35;6.95;;;3.95;;
11473;SDS011;5793;52.238;13.438;2022-08-11T08:28:06;4.85;;;2.90;;
11473;SDS011;5793;52.238;13.438;2022-08-11T08:30:37;4.68;;;2.92;;
11473;SDS011;5793;52.238;13.438;2022-08-11T08:33:16;6.55;;;3.30;;
11473;SDS011;5793;52.238;13.438;2022-08-11T08:35:47;5.53;;;2.60;;
11473;SDS011;5793;52.238;13.438;2022-08-11T08:38:37;4.25;;;2.53;;
11473;SDS011;5793;52.238;13.438;2022-08-11T08:41:06;2.38;;;2.17;;
11473;SDS011;5793;52.238;13.438;2022-08-11T08:43:41;4.78;;;2.45;;
11473;SDS011;5793;52.238;13.438;2022-08-11T08:46:14;2.83;;;2.40;;
11473;SDS011;5793;52.238;13.438;2022-08-11T08:48:48;3.85;;;2.40;;
11473;SDS011;5793;52.238;13.438;2022-08-11T08:51:18;9.63;;;2.55;;
11473;SDS011;5793;52.238;13.438;2022-08-11T08:54:24;5.72;;;2.30;;
11473;SDS011;5793;52.238;13.438;2022-08-11T08:56:59;3.60;;;2.20;;
11473;SDS011;5793;52.238;13.438;2022-08-11T08:59:31;4.75;;;3.05;;
11473;SDS011;5793;52.238;13.438;2022-08-11T09:02:14;3.17;;;2.40;;
11473;SDS011;5793;52.238;13.438;2022-08-11T09:04:45;3.75;;;2.22;;
11473;SDS011;5793;52.238;13.438;2022-08-11T09:07:15;3.65;;;2.40;;
11473;SDS011;5793;52.238;13.438;2022-08-11T09:09:45;3.10;;;1.90;;
11473;SDS011;5793;52.238;13.438;2022-08-11T09:12:18;3.15;;;2.30;;
11473;SDS011;5793;52.238;13.438;2022-08-11T09:15:08;2.42;;;2.22;;
11473;SDS011;5793;52.238;13.438;2022-08-11T09:17:38;2.72;;;2.05;;
11473;SDS011;5793;52.238;13.438;2022-08-11T09:20:10;2.63;;;1.90;;
11473;SDS011;5793;52.238;13.438;2022-08-11T09:22:40;3.58;;;2.22;;
11473;SDS011;5793;52.238;13.438;2022-08-11T09:25:49;5.28;;;2.30;;
11473;SDS011;5793;52.238;13.438;2022-08-11T09:28:36;3.25;;;2.10;;
11473;SDS011;5793;52.238;13.438;2022-08-11T09:31:04;2.47;;;1.92;;
11473;SDS011;5793;52.238;13.438;2022-08-11T09:33:33;2.58;;;2.03;;
11473;SDS011;5793;52.238;13.438;2022-08-11T09:36:05;2.10;;;1.90;;
11473;SDS011;5793;52.238;13.438;2022-08-11T09:38:49;4.57;;;2.03;;
11473;SDS011;5793;52.238;13.438;2022-08-11T09:41:35;4.97;;;2.20;;
11473;SDS011;5793;52.238;13.438;2022-08-11T09:44:25;1.95;;;1.80;;
11473;SDS011;5793;52.238;13.438;2022-08-11T09:47:17;4.65;;;2.08;;
11473;SDS011;5793;52.238;13.438;2022-08-11T09:49:49;3.10;;;1.75;;
11473;SDS011;5793;52.238;13.438;2022-08-11T09:52:21;3.53;;;2.00;;
11473;SDS011;5793;52.238;13.438;2022-08-11T09:54:51;2.78;;;1.95;;
11473;SDS011;5793;52.238;13.438;2022-08-11T09:57:20;6.07;;;2.10;;
11473;SDS011;5793;52.238;13.438;2022-08-11T10:00:08;7.95;;;2.40;;
11473;SDS011;5793;52.238;13.438;2022-08-11T10:02:40;2.80;;;2.20;;
11473;SDS011;5793;52.238;13.438;2022-08-11T10:05:10;3.92;;;2.22;;
11473;SDS011;5793;52.238;13.438;2022-08-11T10:07:58;7.43;;;2.80;;
11473;SDS011;5793;52.238;13.438;2022-08-11T10:10:27;4.75;;;2.40;;
11473;SDS011;5793;52.238;13.438;2022-08-11T10:13:00;3.00;;;2.00;;
11473;SDS011;5793;52.238;13.438;2022-08-11T10:15:52;3.15;;;2.03;;
11473;SDS011;5793;52.238;13.438;2022-08-11T10:18:41;2.53;;;2.20;;
11473;SDS011;5793;52.238;13.438;2022-08-11T10:21:22;4.57;;;2.15;;
11473;SDS011;5793;52.238;13.438;2022-08-11T10:23:56;6.20;;;2.50;;
11473;SDS011;5793;52.238;13.438;2022-08-11T10:26:44;2.42;;;2.22;;
11473;SDS011;5793;52.238;13.438;2022-08-11T10:29:20;2.90;;;2.28;;
11473;SDS011;5793;52.238;13.438;2022-08-11T10:32:17;3.03;;;2.50;;
11473;SDS011;5793;52.238;13.438;2022-08-11T10:35:24;4.22;;;2.42;;
11473;SDS011;5793;52.238;13.438;2022-08-11T10:37:54;3.05;;;2.33;;
11473;SDS011;5793;52.238;13.438;2022-08-11T10:40:36;2.30;;;2.10;;
11473;SDS011;5793;52.238;13.438;2022-08-11T10:43:06;3.88;;;2.20;;
11473;SDS011;5793;52.238;13.438;2022-08-11T10:45:40;5.78;;;2.63;;
11473;SDS011;5793;52.238;13.438;2022-08-11T10:48:28;4.68;;;2.80;;
11473;SDS011;5793;52.238;13.438;2022-08-11T10:51:00;2.75;;;2.30;;
11473;SDS011;5793;52.238;13.438;2022-08-11T10:53:40;12.05;;;3.28;;
11473;SDS011;5793;52.238;13.438;2022-08-11T10:56:30;4.78;;;2.45;;
11473;SDS011;5793;52.238;13.438;2022-08-11T10:59:18;5.47;;;2.53;;
11473;SDS011;5793;52.238;13.438;2022-08-11T11:01:48;3.22;;;2.42;;
11473;SDS011;5793;52.238;13.438;2022-08-11T11:04:20;4.25;;;2.55;;
11473;SDS011;5793;52.238;13.438;2022-08-11T11:06:54;4.03;;;2.63;;
11473;SDS011;5793;52.238;13.438;2022-08-11T11:09:29;3.15;;;2.20;;
11473;SDS011;5793;52.238;13.438;2022-08-11T11:12:02;5.30;;;2.50;;
11473;SDS011;5793;52.238;13.438;2022-08-11T11:14:59;4.47;;;2.28;;
11473;SDS011;5793;52.238;13.438;2022-08-11T11:17:51;6.68;;;2.33;;
11473;SDS011;5793;52.238;13.438;2022-08-11T11:20:22;3.60;;;2.30;;
11473;SDS011;5793;52.238;13.438;2022-08-11T11:23:04;4.93;;;2.45;;
11473;SDS011;5793;52.238;13.438;2022-08-11T11:25:46;3.85;;;2.22;;
11473;SDS011;5793;52.238;13.438;2022-08-11T11:28:50;4.13;;;2.20;;
11473;SDS011;5793;52.238;13.438;2022-08-11T11:31:35;2.63;;;1.98;;
11473;SDS011;5793;52.238;13.438;2022-08-11T11:34:19;2.53;;;2.15;;
11473;SDS011;5793;52.238;13.438;2022-08-11T11:37:00;3.63;;;2.22;;
11473;SDS011;5793;52.238;13.438;2022-08-11T11:39:30;3.47;;;2.10;;
11473;SDS011;5793;52.238;13.438;2022-08-11T11:42:00;4.28;;;2.20;;
11473;SDS011;5793;52.238;13.438;2022-08-11T11:44:31;2.80;;;2.20;;
11473;SDS011;5793;52.238;13.438;2022-08-11T11:47:00;2.75;;;2.15;;
11473;SDS011;5793;52.238;13.438;2022-08-11T11:49:29;4.07;;;2.08;;
11473;SDS011;5793;52.238;13.438;2022-08-11T11:51:58;3.13;;;2.00;;
11473;SDS011;5793;52.238;13.438;2022-08-11T11:54:27;7.85;;;2.22;;
11473;SDS011;5793;52.238;13.438;2022-08-11T11:56:58;4.40;;;2.50;;
11473;SDS011;5793;52.238;13.438;2022-08-11T11:59:51;5.90;;;2.30;;
11473;SDS011;5793;52.238;13.438;2022-08-11T12:02:39;4.28;;;2.15;;
11473;SDS011;5793;52.238;13.438;2022-08-11T12:05:08;11.50;;;2.33;;
11473;SDS011;5793;52.238;13.438;2022-08-11T12:07:37;4.93;;;2.33;;
11473;SDS011;5793;52.238;13.438;2022-08-11T12:10:38;3.38;;;2.22;;
11473;SDS011;5793;52.238;13.438;2022-08-11T12:13:09;2.58;;;2.22;;
11473;SDS011;5793;52.238;13.438;2022-08-11T12:15:57;3.63;;;2.10;;
11473;SDS011;5793;52.238;13.438;2022-08-11T12:18:49;4.38;;;2.30;;
11473;SDS011;5793;52.238;13.438;2022-08-11T12:21:19;6.53;;;3.30;;
11473;SDS011;5793;52.238;13.438;2022-08-11T12:23:48;4.72;;;2.33;;
11473;SDS011;5793;52.238;13.438;2022-08-11T12:26:35;2.50;;;2.30;;
11473;SDS011;5793;52.238;13.438;2022-08-11T12:29:41;3.60;;;2.30;;
11473;SDS011;5793;52.238;13.438;2022-08-11T12:32:16;5.97;;;2.70;;
11473;SDS011;5793;52.238;13.438;2022-08-11T12:34:45;2.92;;;2.40;;
11473;SDS011;5793;52.238;13.438;2022-08-11T12:37:14;2.50;;;2.30;;
11473;SDS011;5793;52.238;13.438;2022-08-11T12:39:46;3.72;;;2.40;;
11473;SDS011;5793;52.238;13.438;2022-08-11T12:42:52;3.75;;;2.40;;
11473;SDS011;5793;52.238;13.438;2022-08-11T12:45:47;2.60;;;2.40;;
11473;SDS011;5793;52.238;13.438;2022-08-11T12:48:19;2.65;;;2.30;;
11473;SDS011;5793;52.238;13.438;2022-08-11T12:51:27;4.90;;;2.53;;
11473;SDS011;5793;52.238;13.438;2022-08-11T12:54:38;5.97;;;2.50;;
11473;SDS011;5793;52.238;13.438;2022-08-11T12:57:11;3.53;;;2.35;;
11473;SDS011;5793;52.238;13.438;2022-08-11T13:00:11;2.42;;;2.10;;
11473;SDS011;5793;52.238;13.438;2022-08-11T13:02:58;2.60;;;2.40;;
11473;SDS011;5793;52.238;13.438;2022-08-11T13:05:47;2.55;;;2.15;;
11473;SDS011;5793;52.238;13.438;2022-08-11T13:08:18;4.72;;;2.50;;
11473;SDS011;5793;52.238;13.438;2022-08-11T13:10:48;6.85;;;2.50;;
11473;SDS011;5793;52.238;13.438;2022-08-11T13:13:35;3.88;;;2.20;;
11473;SDS011;5793;52.238;13.438;2022-08-11T13:16:22;2.55;;;1.90;;
11473;SDS011;5793;52.238;13.438;2022-08-11T13:18:52;2.88;;;1.90;;
11473;SDS011;5793;52.238;13.438;2022-08-11T13:21:22;4.82;;;2.50;;
11473;SDS011;5793;52.238;13.438;2022-08-11T13:23:52;2.58;;;2.10;;
11473;SDS011;5793;52.238;13.438;2022-08-11T13:26:28;2.75;;;2.28;;
11473;SDS011;5793;52.238;13.438;2022-08-11T13:29:14;3.38;;;2.08;;
11473;SDS011;5793;52.238;13.438;2022-08-11T13:31:44;3.88;;;2.03;;
11473;SDS011;5793;52.238;13.438;2022-08-11T13:34:13;7.38;;;2.45;;
11473;SDS011;5793;52.238;13.438;2022-08-11T13:36:43;2.58;;;2.30;;
11473;SDS011;5793;52.238;13.438;2022-08-11T13:39:12;3.90;;;2.30;;
11473;SDS011;5793;52.238;13.438;2022-08-11T13:41:41;3.50;;;2.30;;
11473;SDS011;5793;52.238;13.438;2022-08-11T13:44:12;5.00;;;2.58;;
11473;SDS011;5793;52.238;13.438;2022-08-11T13:46:50;2.13;;;1.90;;
11473;SDS011;5793;52.238;13.438;2022-08-11T13:49:19;4.25;;;2.20;;
11473;SDS011;5793;52.238;13.438;2022-08-11T13:51:49;3.40;;;2.10;;
11473;SDS011;5793;52.238;13.438;2022-08-11T13:54:18;4.53;;;2.00;;
11473;SDS011;5793;52.238;13.438;2022-08-11T13:56:49;6.13;;;2.30;;
11473;SDS011;5793;52.238;13.438;2022-08-11T13:59:19;3.97;;;2.13;;
11473;SDS011;5793;52.238;13.438;2022-08-11T14:01:56;4.07;;;2.03;;
11473;SDS011;5793;52.238;13.438;2022-08-11T14:04:49;4.55;;;2.25;;
11473;SDS011;5793;52.238;13.438;2022-08-11T14:07:23;4.13;;;1.90;;
11473;SDS011;5793;52.238;13.438;2022-08-11T14:09:55;5.82;;;2.28;;
11473;SDS011;5793;52.238;13.438;2022-08-11T14:12:26;4.28;;;1.95;;
11473;SDS011;5793;52.238;13.438;2022-08-11T14:15:16;3.17;;;1.70;;
11473;SDS011;5793;52.238;13.438;2022-08-11T14:17:49;2.97;;;2.00;;
11473;SDS011;5793;52.238;13.438;2022-08-11T14:20:21;3.42;;;1.80;;
11473;SDS011;5793;52.238;13.438;2022-08-11T14:23:07;5.65;;;2.40;;
11473;SDS011;5793;52.238;13.438;2022-08-11T14:25:38;4.05;;;1.77;;
11473;SDS011;5793;52.238;13.438;2022-08-11T14:28:28;2.97;;;1.90;;
11473;SDS011;5793;52.238;13.438;2022-08-11T14:31:09;2.88;;;1.70;;
11473;SDS011;5793;52.238;13.438;2022-08-11T14:33:37;3.38;;;1.73;;
11473;SDS011;5793;52.238;13.438;2022-08-11T14:36:27;7.15;;;1.92;;
11473;SDS011;5793;52.238;13.438;2022-08-11T14:38:58;2.67;;;1.77;;
11473;SDS011;5793;52.238;13.438;2022-08-11T14:41:29;3.72;;;1.90;;
11473;SDS011;5793;52.238;13.438;2022-08-11T14:44:35;2.17;;;1.67;;
11473;SDS011;5793;52.238;13.438;2022-08-11T14:47:21;6.18;;;2.08;;
11473;SDS011;5793;52.238;13.438;2022-08-11T14:49:52;2.88;;;1.45;;
11473;SDS011;5793;52.238;13.438;2022-08-11T14:52:35;2.20;;;1.60;;
11473;SDS011;5793;52.238;13.438;2022-08-11T14:55:06;1.80;;;1.60;;
11473;SDS011;5793;52.238;13.438;2022-08-11T14:57:52;2.50;;;1.80;;
11473;SDS011;5793;52.238;13.438;2022-08-11T15:00:22;4.75;;;2.25;;
11473;SDS011;5793;52.238;13.438;2022-08-11T15:02:51;4.32;;;2.00;;
11473;SDS011;5793;52.238;13.438;2022-08-11T15:05:44;3.45;;;1.60;;
11473;SDS011;5793;52.238;13.438;2022-08-11T15:08:24;2.10;;;1.60;;
11473;SDS011;5793;52.238;13.438;2022-08-11T15:11:14;4.05;;;1.65;;
11473;SDS011;5793;52.238;13.438;2022-08-11T15:14:01;2.78;;;1.60;;
11473;SDS011;5793;52.238;13.438;2022-08-11T15:16:32;2.40;;;1.63;;
11473;SDS011;5793;52.238;13.438;2022-08-11T15:19:20;2.88;;;1.45;;
11473;SDS011;5793;52.238;13.438;2022-08-11T15:21:48;1.92;;;1.60;;
11473;SDS011;5793;52.238;13.438;2022-08-11T15:24:34;4.57;;;1.70;;
11473;SDS011;5793;52.238;13.438;2022-08-11T15:27:05;5.72;;;1.50;;
11473;SDS011;5793;52.238;13.438;2022-08-11T15:29:55;3.38;;;1.70;;
11473;SDS011;5793;52.238;13.438;2022-08-11T15:32:58;5.68;;;1.85;;
11473;SDS011;5793;52.238;13.438;2022-08-11T15:35:48;2.90;;;1.52;;
11473;SDS011;5793;52.238;13.438;2022-08-11T15:38:35;3.55;;;2.00;;
11473;SDS011;5793;52.238;13.438;2022-08-11T15:41:09;3.63;;;1.52;;
11473;SDS011;5793;52.238;13.438;2022-08-11T15:44:03;2.85;;;1.63;;
11473;SDS011;5793;52.238;13.438;2022-08-11T15:47:14;2.55;;;1.80;;
11473;SDS011;5793;52.238;13.438;2022-08-11T15:49:44;7.20;;;2.00;;
11473;SDS011;5793;52.238;13.438;2022-08-11T15:52:43;5.03;;;1.67;;
11473;SDS011;5793;52.238;13.438;2022-08-11T15:55:14;2.58;;;1.60;;
11473;SDS011;5793;52.238;13.438;2022-08-11T15:57:43;2.92;;;1.60;;
11473;SDS011;5793;52.238;13.438;2022-08-11T16:00:32;2.55;;;1.70;;
11473;SDS011;5793;52.238;13.438;2022-08-11T16:03:30;5.40;;;1.80;;
11473;SDS011;5793;52.238;13.438;2022-08-11T16:06:32;2.15;;;1.30;;
11473;SDS011;5793;52.238;13.438;2022-08-11T16:09:02;3.58;;;1.50;;
11473;SDS011;5793;52.238;13.438;2022-08-11T16:11:43;2.20;;;1.38;;
11473;SDS011;5793;52.238;13.438;2022-08-11T16:14:13;2.30;;;1.23;;
11473;SDS011;5793;52.238;13.438;2022-08-11T16:17:01;5.32;;;1.60;;
11473;SDS011;5793;52.238;13.438;2022-08-11T16:19:30;3.28;;;1.50;;
11473;SDS011;5793;52.238;13.438;2022-08-11T16:22:02;4.32;;;1.70;;
11473;SDS011;5793;52.238;13.438;2022-08-11T16:24:34;3.28;;;1.52;;
11473;SDS011;5793;52.238;13.438;2022-08-11T16:27:24;3.92;;;1.50;;
11473;SDS011;5793;52.238;13.438;2022-08-11T16:29:54;11.68;;;1.95;;
11473;SDS011;5793;52.238;13.438;2022-08-11T16:32:24;3.42;;;2.03;;
11473;SDS011;5793;52.238;13.438;2022-08-11T16:34:54;1.95;;;1.50;;
11473;SDS011;5793;52.238;13.438;2022-08-11T16:37:42;1.80;;;1.48;;
11473;SDS011;5793;52.238;13.438;2022-08-11T16:40:28;3.80;;;1.67;;
11473;SDS011;5793;52.238;13.438;2022-08-11T16:42:58;3.20;;;1.63;;
11473;SDS011;5793;52.238;13.438;2022-08-11T16:45:45;1.77;;;1.50;;
11473;SDS011;5793;52.238;13.438;2022-08-11T16:48:34;2.60;;;1.42;;
11473;SDS011;5793;52.238;13.438;2022-08-11T16:51:04;3.15;;;1.40;;
11473;SDS011;5793;52.238;13.438;2022-08-11T16:53:33;3.25;;;1.33;;
11473;SDS011;5793;52.238;13.438;2022-08-11T16:56:24;2.40;;;1.40;;